sensor_id;sensor_type;location;lat;lon;timestamp;P1;durP1;ratioP1;P2;durP2;ratioP2
1479;SDS011;732;51.698;4.886;2022-10-18T00:01:19;23.80;;;12.87;;
1479;SDS011;732;51.698;4.886;2022-10-18T00:03:49;21.93;;;13.13;;
1479;SDS011;732;51.698;4.886;2022-10-18T00:06:21;24.57;;;13.10;;
1479;SDS011;732;51.698;4.886;2022-10-18T00:08:50;23.20;;;13.37;;
1479;SDS011;732;51.698;4.886;2022-10-18T00:11:21;25.33;;;12.90;;
1479;SDS011;732;51.698;4.886;2022-10-18T00:13:49;25.60;;;13.73;;
1479;SDS011;732;51.698;4.886;2022-10-18T00:16:21;24.90;;;13.03;;
1479;SDS011;732;51.698;4.886;2022-10-18T00:18:50;19.60;;;11.50;;
1479;SDS011;732;51.698;4.886;2022-10-18T00:21:20;23.00;;;11.87;;
1479;SDS011;732;51.698;4.886;2022-10-18T00:23:51;23.30;;;13.17;;
1479;SDS011;732;51.698;4.886;2022-10-18T00:26:22;24.43;;;13.13;;
1479;SDS011;732;51.698;4.886;2022-10-18T00:28:53;20.77;;;12.00;;
1479;SDS011;732;51.698;4.886;2022-10-18T00:31:26;22.73;;;11.80;;
1479;SDS011;732;51.698;4.886;2022-10-18T00:33:57;25.00;;;13.77;;
1479;SDS011;732;51.698;4.886;2022-10-18T00:36:29;22.33;;;12.67;;
1479;SDS011;732;51.698;4.886;2022-10-18T00:39:00;24.70;;;13.50;;
1479;SDS011;732;51.698;4.886;2022-10-18T00:41:31;23.87;;;12.10;;
1479;SDS011;732;51.698;4.886;2022-10-18T00:44:04;25.03;;;12.50;;
1479;SDS011;732;51.698;4.886;2022-10-18T00:46:55;26.30;;;12.80;;
1479;SDS011;732;51.698;4.886;2022-10-18T00:49:29;28.67;;;14.53;;
1479;SDS011;732;51.698;4.886;2022-10-18T00:52:02;22.30;;;12.80;;
1479;SDS011;732;51.698;4.886;2022-10-18T00:54:38;22.30;;;13.17;;
1479;SDS011;732;51.698;4.886;2022-10-18T00:57:10;22.70;;;12.20;;
1479;SDS011;732;51.698;4.886;2022-10-18T00:59:41;24.60;;;12.70;;
1479;SDS011;732;51.698;4.886;2022-10-18T01:02:12;24.30;;;13.00;;
1479;SDS011;732;51.698;4.886;2022-10-18T01:04:44;20.50;;;11.57;;
1479;SDS011;732;51.698;4.886;2022-10-18T01:07:17;27.10;;;11.93;;
1479;SDS011;732;51.698;4.886;2022-10-18T01:10:02;21.50;;;12.10;;
1479;SDS011;732;51.698;4.886;2022-10-18T01:12:42;24.40;;;13.07;;
1479;SDS011;732;51.698;4.886;2022-10-18T01:15:26;24.63;;;12.40;;
1479;SDS011;732;51.698;4.886;2022-10-18T01:18:08;24.70;;;13.53;;
1479;SDS011;732;51.698;4.886;2022-10-18T01:20:54;23.23;;;13.10;;
1479;SDS011;732;51.698;4.886;2022-10-18T01:23:56;21.27;;;12.03;;
1479;SDS011;732;51.698;4.886;2022-10-18T01:27:02;24.20;;;13.83;;
1479;SDS011;732;51.698;4.886;2022-10-18T01:29:51;25.67;;;13.47;;
1479;SDS011;732;51.698;4.886;2022-10-18T01:32:35;23.50;;;12.63;;
1479;SDS011;732;51.698;4.886;2022-10-18T01:35:09;29.40;;;13.13;;
1479;SDS011;732;51.698;4.886;2022-10-18T01:37:44;24.13;;;13.47;;
1479;SDS011;732;51.698;4.886;2022-10-18T01:40:17;22.40;;;12.63;;
1479;SDS011;732;51.698;4.886;2022-10-18T01:42:48;22.00;;;12.90;;
1479;SDS011;732;51.698;4.886;2022-10-18T01:45:20;22.07;;;13.17;;
1479;SDS011;732;51.698;4.886;2022-10-18T01:47:52;25.67;;;14.13;;
1479;SDS011;732;51.698;4.886;2022-10-18T01:50:27;21.60;;;13.20;;
1479;SDS011;732;51.698;4.886;2022-10-18T01:52:57;21.00;;;12.50;;
1479;SDS011;732;51.698;4.886;2022-10-18T01:55:29;23.67;;;14.07;;
1479;SDS011;732;51.698;4.886;2022-10-18T01:58:05;24.80;;;13.10;;
1479;SDS011;732;51.698;4.886;2022-10-18T02:00:46;23.93;;;12.93;;
1479;SDS011;732;51.698;4.886;2022-10-18T02:03:20;23.23;;;13.47;;
1479;SDS011;732;51.698;4.886;2022-10-18T02:05:51;24.17;;;13.40;;
1479;SDS011;732;51.698;4.886;2022-10-18T02:08:26;24.97;;;13.27;;
1479;SDS011;732;51.698;4.886;2022-10-18T02:11:02;23.47;;;13.80;;
1479;SDS011;732;51.698;4.886;2022-10-18T02:13:34;26.50;;;14.00;;
1479;SDS011;732;51.698;4.886;2022-10-18T02:16:12;28.70;;;13.30;;
1479;SDS011;732;51.698;4.886;2022-10-18T02:18:51;21.63;;;13.43;;
1479;SDS011;732;51.698;4.886;2022-10-18T02:21:24;25.40;;;13.33;;
1479;SDS011;732;51.698;4.886;2022-10-18T02:23:56;28.70;;;14.10;;
1479;SDS011;732;51.698;4.886;2022-10-18T02:26:27;30.97;;;14.77;;
1479;SDS011;732;51.698;4.886;2022-10-18T02:28:57;37.97;;;15.90;;
1479;SDS011;732;51.698;4.886;2022-10-18T02:31:27;28.87;;;15.50;;
1479;SDS011;732;51.698;4.886;2022-10-18T02:34:05;31.93;;;13.87;;
1479;SDS011;732;51.698;4.886;2022-10-18T02:36:41;29.20;;;13.50;;
1479;SDS011;732;51.698;4.886;2022-10-18T02:39:13;32.70;;;14.00;;
1479;SDS011;732;51.698;4.886;2022-10-18T02:41:47;29.77;;;15.80;;
1479;SDS011;732;51.698;4.886;2022-10-18T02:44:16;29.20;;;14.97;;
1479;SDS011;732;51.698;4.886;2022-10-18T02:46:44;25.40;;;14.23;;
1479;SDS011;732;51.698;4.886;2022-10-18T02:49:15;27.03;;;13.37;;
1479;SDS011;732;51.698;4.886;2022-10-18T02:51:43;28.63;;;13.97;;
1479;SDS011;732;51.698;4.886;2022-10-18T02:54:12;23.43;;;12.60;;
1479;SDS011;732;51.698;4.886;2022-10-18T02:56:41;26.57;;;13.37;;
1479;SDS011;732;51.698;4.886;2022-10-18T02:59:09;22.10;;;13.03;;
1479;SDS011;732;51.698;4.886;2022-10-18T03:01:38;30.20;;;14.60;;
1479;SDS011;732;51.698;4.886;2022-10-18T03:04:06;29.53;;;13.40;;
1479;SDS011;732;51.698;4.886;2022-10-18T03:06:37;25.43;;;13.23;;
1479;SDS011;732;51.698;4.886;2022-10-18T03:09:05;23.77;;;13.60;;
1479;SDS011;732;51.698;4.886;2022-10-18T03:11:36;27.10;;;13.80;;
1479;SDS011;732;51.698;4.886;2022-10-18T03:14:05;20.80;;;11.93;;
1479;SDS011;732;51.698;4.886;2022-10-18T03:16:33;24.67;;;14.27;;
1479;SDS011;732;51.698;4.886;2022-10-18T03:19:04;24.97;;;13.63;;
1479;SDS011;732;51.698;4.886;2022-10-18T03:21:33;28.40;;;13.43;;
1479;SDS011;732;51.698;4.886;2022-10-18T03:24:05;24.80;;;13.13;;
1479;SDS011;732;51.698;4.886;2022-10-18T03:26:34;26.23;;;14.17;;
1479;SDS011;732;51.698;4.886;2022-10-18T03:29:02;28.60;;;13.83;;
1479;SDS011;732;51.698;4.886;2022-10-18T03:31:31;29.67;;;14.40;;
1479;SDS011;732;51.698;4.886;2022-10-18T03:34:00;26.67;;;14.00;;
1479;SDS011;732;51.698;4.886;2022-10-18T03:36:28;25.60;;;13.43;;
1479;SDS011;732;51.698;4.886;2022-10-18T03:38:59;28.37;;;12.63;;
1479;SDS011;732;51.698;4.886;2022-10-18T03:41:29;34.13;;;13.77;;
1479;SDS011;732;51.698;4.886;2022-10-18T03:43:57;24.80;;;12.83;;
1479;SDS011;732;51.698;4.886;2022-10-18T03:46:28;23.37;;;12.60;;
1479;SDS011;732;51.698;4.886;2022-10-18T03:48:57;25.00;;;12.50;;
1479;SDS011;732;51.698;4.886;2022-10-18T03:51:25;27.53;;;13.40;;
1479;SDS011;732;51.698;4.886;2022-10-18T03:53:54;25.20;;;12.23;;
1479;SDS011;732;51.698;4.886;2022-10-18T03:56:22;25.73;;;12.30;;
1479;SDS011;732;51.698;4.886;2022-10-18T03:58:52;24.43;;;13.77;;
1479;SDS011;732;51.698;4.886;2022-10-18T04:01:22;26.93;;;12.47;;
1479;SDS011;732;51.698;4.886;2022-10-18T04:03:51;30.47;;;12.33;;
1479;SDS011;732;51.698;4.886;2022-10-18T04:06:19;25.80;;;12.50;;
1479;SDS011;732;51.698;4.886;2022-10-18T04:08:48;25.20;;;12.83;;
1479;SDS011;732;51.698;4.886;2022-10-18T04:11:16;24.83;;;12.60;;
1479;SDS011;732;51.698;4.886;2022-10-18T04:13:45;23.50;;;13.30;;
1479;SDS011;732;51.698;4.886;2022-10-18T04:16:15;22.90;;;11.83;;
1479;SDS011;732;51.698;4.886;2022-10-18T04:18:43;25.37;;;13.23;;
1479;SDS011;732;51.698;4.886;2022-10-18T04:21:12;29.37;;;12.90;;
1479;SDS011;732;51.698;4.886;2022-10-18T04:23:40;25.10;;;12.97;;
1479;SDS011;732;51.698;4.886;2022-10-18T04:26:09;22.40;;;12.27;;
1479;SDS011;732;51.698;4.886;2022-10-18T04:28:37;30.77;;;13.57;;
1479;SDS011;732;51.698;4.886;2022-10-18T04:31:06;23.77;;;12.63;;
1479;SDS011;732;51.698;4.886;2022-10-18T04:33:36;28.33;;;13.77;;
1479;SDS011;732;51.698;4.886;2022-10-18T04:36:05;28.00;;;13.83;;
1479;SDS011;732;51.698;4.886;2022-10-18T04:38:34;26.43;;;13.50;;
1479;SDS011;732;51.698;4.886;2022-10-18T04:41:02;32.00;;;12.97;;
1479;SDS011;732;51.698;4.886;2022-10-18T04:43:31;36.93;;;13.50;;
1479;SDS011;732;51.698;4.886;2022-10-18T04:46:00;29.10;;;13.47;;
1479;SDS011;732;51.698;4.886;2022-10-18T04:48:28;80.30;;;17.40;;
1479;SDS011;732;51.698;4.886;2022-10-18T04:50:58;27.63;;;14.67;;
1479;SDS011;732;51.698;4.886;2022-10-18T04:53:27;24.83;;;13.60;;
1479;SDS011;732;51.698;4.886;2022-10-18T04:55:55;22.93;;;12.60;;
1479;SDS011;732;51.698;4.886;2022-10-18T04:58:24;27.00;;;13.50;;
1479;SDS011;732;51.698;4.886;2022-10-18T05:00:53;29.40;;;13.60;;
1479;SDS011;732;51.698;4.886;2022-10-18T05:03:21;26.87;;;12.53;;
1479;SDS011;732;51.698;4.886;2022-10-18T05:05:50;32.30;;;13.67;;
1479;SDS011;732;51.698;4.886;2022-10-18T05:08:30;22.10;;;12.77;;
1479;SDS011;732;51.698;4.886;2022-10-18T05:11:00;31.63;;;13.43;;
1479;SDS011;732;51.698;4.886;2022-10-18T05:13:30;28.70;;;14.20;;
1479;SDS011;732;51.698;4.886;2022-10-18T05:15:58;28.60;;;13.73;;
1479;SDS011;732;51.698;4.886;2022-10-18T05:18:28;29.17;;;13.47;;
1479;SDS011;732;51.698;4.886;2022-10-18T05:20:57;30.57;;;12.80;;
1479;SDS011;732;51.698;4.886;2022-10-18T05:23:26;27.33;;;12.53;;
1479;SDS011;732;51.698;4.886;2022-10-18T05:25:59;28.57;;;12.90;;
1479;SDS011;732;51.698;4.886;2022-10-18T05:28:29;24.73;;;11.93;;
1479;SDS011;732;51.698;4.886;2022-10-18T05:31:06;26.47;;;12.07;;
1479;SDS011;732;51.698;4.886;2022-10-18T05:33:37;20.30;;;11.90;;
1479;SDS011;732;51.698;4.886;2022-10-18T05:36:06;20.57;;;10.30;;
1479;SDS011;732;51.698;4.886;2022-10-18T05:38:36;26.43;;;11.80;;
1479;SDS011;732;51.698;4.886;2022-10-18T05:41:09;26.47;;;12.50;;
1479;SDS011;732;51.698;4.886;2022-10-18T05:43:38;21.33;;;11.17;;
1479;SDS011;732;51.698;4.886;2022-10-18T05:46:07;19.30;;;10.87;;
1479;SDS011;732;51.698;4.886;2022-10-18T05:48:41;22.97;;;10.43;;
1479;SDS011;732;51.698;4.886;2022-10-18T05:51:10;26.90;;;11.63;;
1479;SDS011;732;51.698;4.886;2022-10-18T05:53:39;19.50;;;11.17;;
1479;SDS011;732;51.698;4.886;2022-10-18T05:56:09;23.13;;;11.63;;
1479;SDS011;732;51.698;4.886;2022-10-18T05:58:38;24.93;;;11.90;;
1479;SDS011;732;51.698;4.886;2022-10-18T06:01:08;19.30;;;10.57;;
1479;SDS011;732;51.698;4.886;2022-10-18T06:03:39;28.93;;;11.23;;
1479;SDS011;732;51.698;4.886;2022-10-18T06:06:10;20.30;;;10.43;;
1479;SDS011;732;51.698;4.886;2022-10-18T06:08:41;15.50;;;10.20;;
1479;SDS011;732;51.698;4.886;2022-10-18T06:11:13;19.07;;;9.93;;
1479;SDS011;732;51.698;4.886;2022-10-18T06:13:44;17.07;;;9.17;;
1479;SDS011;732;51.698;4.886;2022-10-18T06:16:16;20.57;;;9.27;;
1479;SDS011;732;51.698;4.886;2022-10-18T06:18:46;28.77;;;9.60;;
1479;SDS011;732;51.698;4.886;2022-10-18T06:21:17;17.67;;;9.17;;
1479;SDS011;732;51.698;4.886;2022-10-18T06:23:47;19.67;;;8.97;;
1479;SDS011;732;51.698;4.886;2022-10-18T06:26:17;15.87;;;10.17;;
1479;SDS011;732;51.698;4.886;2022-10-18T06:28:47;18.70;;;9.27;;
1479;SDS011;732;51.698;4.886;2022-10-18T06:31:20;15.90;;;8.43;;
1479;SDS011;732;51.698;4.886;2022-10-18T06:33:49;18.43;;;9.87;;
1479;SDS011;732;51.698;4.886;2022-10-18T06:36:18;15.50;;;8.90;;
1479;SDS011;732;51.698;4.886;2022-10-18T06:38:49;18.27;;;8.60;;
1479;SDS011;732;51.698;4.886;2022-10-18T06:41:20;16.63;;;9.10;;
1479;SDS011;732;51.698;4.886;2022-10-18T06:43:49;18.97;;;9.30;;
1479;SDS011;732;51.698;4.886;2022-10-18T06:46:23;18.63;;;9.70;;
1479;SDS011;732;51.698;4.886;2022-10-18T06:48:55;25.03;;;11.17;;
1479;SDS011;732;51.698;4.886;2022-10-18T06:51:24;27.33;;;11.10;;
1479;SDS011;732;51.698;4.886;2022-10-18T06:53:53;20.60;;;10.70;;
1479;SDS011;732;51.698;4.886;2022-10-18T07:00:57;21.60;;;11.77;;
1479;SDS011;732;51.698;4.886;2022-10-18T07:10:23;27.70;;;12.23;;
1479;SDS011;732;51.698;4.886;2022-10-18T07:23:14;17.10;;;9.70;;
1479;SDS011;732;51.698;4.886;2022-10-18T07:25:42;22.10;;;10.70;;
1479;SDS011;732;51.698;4.886;2022-10-18T07:28:11;22.30;;;11.40;;
1479;SDS011;732;51.698;4.886;2022-10-18T07:30:39;23.97;;;11.07;;
1479;SDS011;732;51.698;4.886;2022-10-18T07:33:08;23.10;;;9.43;;
1479;SDS011;732;51.698;4.886;2022-10-18T07:35:36;17.20;;;9.63;;
1479;SDS011;732;51.698;4.886;2022-10-18T07:38:05;20.47;;;9.50;;
1479;SDS011;732;51.698;4.886;2022-10-18T07:40:34;20.03;;;10.10;;
1479;SDS011;732;51.698;4.886;2022-10-18T07:43:03;20.93;;;9.50;;
1479;SDS011;732;51.698;4.886;2022-10-18T07:45:37;18.03;;;9.50;;
1479;SDS011;732;51.698;4.886;2022-10-18T07:48:05;19.00;;;10.00;;
1479;SDS011;732;51.698;4.886;2022-10-18T07:50:34;21.20;;;10.30;;
1479;SDS011;732;51.698;4.886;2022-10-18T07:53:03;21.73;;;9.20;;
1479;SDS011;732;51.698;4.886;2022-10-18T07:55:31;18.80;;;9.20;;
1479;SDS011;732;51.698;4.886;2022-10-18T07:58:01;29.93;;;12.17;;
1479;SDS011;732;51.698;4.886;2022-10-18T08:00:30;24.93;;;12.30;;
1479;SDS011;732;51.698;4.886;2022-10-18T08:02:58;28.33;;;11.90;;
1479;SDS011;732;51.698;4.886;2022-10-18T08:05:27;31.70;;;14.53;;
1479;SDS011;732;51.698;4.886;2022-10-18T08:08:01;34.70;;;14.63;;
1479;SDS011;732;51.698;4.886;2022-10-18T08:10:33;27.37;;;13.30;;
1479;SDS011;732;51.698;4.886;2022-10-18T08:13:03;25.47;;;12.73;;
1479;SDS011;732;51.698;4.886;2022-10-18T08:15:32;30.80;;;12.73;;
1479;SDS011;732;51.698;4.886;2022-10-18T08:18:00;19.60;;;10.40;;
1479;SDS011;732;51.698;4.886;2022-10-18T08:20:29;23.87;;;9.90;;
1479;SDS011;732;51.698;4.886;2022-10-18T08:22:58;16.67;;;8.47;;
1479;SDS011;732;51.698;4.886;2022-10-18T08:25:27;18.77;;;7.77;;
1479;SDS011;732;51.698;4.886;2022-10-18T08:27:56;14.90;;;7.47;;
1479;SDS011;732;51.698;4.886;2022-10-18T08:30:26;17.33;;;6.83;;
1479;SDS011;732;51.698;4.886;2022-10-18T08:32:54;12.70;;;6.13;;
1479;SDS011;732;51.698;4.886;2022-10-18T08:35:22;13.10;;;6.10;;
1479;SDS011;732;51.698;4.886;2022-10-18T08:37:51;11.90;;;5.87;;
1479;SDS011;732;51.698;4.886;2022-10-18T08:40:19;13.00;;;5.70;;
1479;SDS011;732;51.698;4.886;2022-10-18T08:42:55;10.37;;;5.03;;
1479;SDS011;732;51.698;4.886;2022-10-18T08:45:36;11.37;;;5.63;;
1479;SDS011;732;51.698;4.886;2022-10-18T08:48:14;12.93;;;5.90;;
1479;SDS011;732;51.698;4.886;2022-10-18T08:50:48;14.50;;;4.80;;
1479;SDS011;732;51.698;4.886;2022-10-18T08:53:18;10.33;;;4.97;;
1479;SDS011;732;51.698;4.886;2022-10-18T08:55:53;14.70;;;4.33;;
1479;SDS011;732;51.698;4.886;2022-10-18T08:58:29;6.97;;;3.63;;
1479;SDS011;732;51.698;4.886;2022-10-18T09:01:05;13.40;;;3.80;;
1479;SDS011;732;51.698;4.886;2022-10-18T09:03:57;7.90;;;3.47;;
1479;SDS011;732;51.698;4.886;2022-10-18T09:06:43;5.10;;;2.83;;
1479;SDS011;732;51.698;4.886;2022-10-18T09:09:28;5.43;;;2.40;;
1479;SDS011;732;51.698;4.886;2022-10-18T09:12:10;7.20;;;2.63;;
1479;SDS011;732;51.698;4.886;2022-10-18T09:15:03;4.60;;;2.70;;
1479;SDS011;732;51.698;4.886;2022-10-18T09:17:46;4.23;;;2.30;;
1479;SDS011;732;51.698;4.886;2022-10-18T09:20:31;6.77;;;2.40;;
1479;SDS011;732;51.698;4.886;2022-10-18T09:23:12;6.77;;;2.67;;
1479;SDS011;732;51.698;4.886;2022-10-18T09:25:47;10.60;;;2.60;;
1479;SDS011;732;51.698;4.886;2022-10-18T09:28:23;9.40;;;2.40;;
1479;SDS011;732;51.698;4.886;2022-10-18T09:31:04;6.03;;;2.07;;
1479;SDS011;732;51.698;4.886;2022-10-18T09:33:45;3.97;;;1.90;;
1479;SDS011;732;51.698;4.886;2022-10-18T09:36:21;9.33;;;2.17;;
1479;SDS011;732;51.698;4.886;2022-10-18T09:38:53;3.50;;;1.77;;
1479;SDS011;732;51.698;4.886;2022-10-18T09:41:29;4.00;;;2.50;;
1479;SDS011;732;51.698;4.886;2022-10-18T09:44:05;3.77;;;1.83;;
1479;SDS011;732;51.698;4.886;2022-10-18T09:46:44;5.57;;;2.27;;
1479;SDS011;732;51.698;4.886;2022-10-18T09:49:20;7.30;;;1.90;;
1479;SDS011;732;51.698;4.886;2022-10-18T09:51:54;6.10;;;2.00;;
1479;SDS011;732;51.698;4.886;2022-10-18T09:54:25;9.60;;;1.80;;
1479;SDS011;732;51.698;4.886;2022-10-18T09:57:01;2.77;;;1.40;;
1479;SDS011;732;51.698;4.886;2022-10-18T09:59:35;11.90;;;1.93;;
1479;SDS011;732;51.698;4.886;2022-10-18T10:02:08;5.10;;;1.30;;
1479;SDS011;732;51.698;4.886;2022-10-18T10:04:42;10.37;;;1.60;;
1479;SDS011;732;51.698;4.886;2022-10-18T10:07:12;4.27;;;1.70;;
1479;SDS011;732;51.698;4.886;2022-10-18T10:09:45;5.37;;;1.13;;
1479;SDS011;732;51.698;4.886;2022-10-18T10:12:23;2.87;;;1.40;;
1479;SDS011;732;51.698;4.886;2022-10-18T10:15:15;3.37;;;1.07;;
1479;SDS011;732;51.698;4.886;2022-10-18T10:17:52;3.40;;;1.40;;
1479;SDS011;732;51.698;4.886;2022-10-18T10:20:26;4.13;;;1.30;;
1479;SDS011;732;51.698;4.886;2022-10-18T10:23:04;2.50;;;1.40;;
1479;SDS011;732;51.698;4.886;2022-10-18T10:25:36;3.00;;;1.13;;
1479;SDS011;732;51.698;4.886;2022-10-18T10:28:10;1.77;;;1.00;;
1479;SDS011;732;51.698;4.886;2022-10-18T10:30:42;2.50;;;1.00;;
1479;SDS011;732;51.698;4.886;2022-10-18T10:36:04;3.97;;;1.20;;
1479;SDS011;732;51.698;4.886;2022-10-18T10:38:44;2.93;;;1.10;;
1479;SDS011;732;51.698;4.886;2022-10-18T10:41:17;3.90;;;1.30;;
1479;SDS011;732;51.698;4.886;2022-10-18T10:43:49;4.90;;;1.60;;
1479;SDS011;732;51.698;4.886;2022-10-18T10:46:18;5.57;;;1.33;;
1479;SDS011;732;51.698;4.886;2022-10-18T10:48:48;5.73;;;1.23;;
1479;SDS011;732;51.698;4.886;2022-10-18T10:51:42;4.27;;;1.70;;
1479;SDS011;732;51.698;4.886;2022-10-18T10:54:23;5.50;;;2.13;;
1479;SDS011;732;51.698;4.886;2022-10-18T10:56:54;3.40;;;1.70;;
1479;SDS011;732;51.698;4.886;2022-10-18T10:59:28;6.03;;;1.63;;
1479;SDS011;732;51.698;4.886;2022-10-18T11:02:10;3.53;;;1.70;;
1479;SDS011;732;51.698;4.886;2022-10-18T11:04:48;5.40;;;1.33;;
1479;SDS011;732;51.698;4.886;2022-10-18T11:07:20;3.17;;;1.40;;
1479;SDS011;732;51.698;4.886;2022-10-18T11:09:57;3.80;;;1.90;;
1479;SDS011;732;51.698;4.886;2022-10-18T11:12:31;8.83;;;1.70;;
1479;SDS011;732;51.698;4.886;2022-10-18T11:15:10;4.30;;;1.17;;
1479;SDS011;732;51.698;4.886;2022-10-18T11:17:49;7.83;;;1.30;;
1479;SDS011;732;51.698;4.886;2022-10-18T11:20:30;3.53;;;1.23;;
1479;SDS011;732;51.698;4.886;2022-10-18T11:23:06;2.83;;;1.80;;
1479;SDS011;732;51.698;4.886;2022-10-18T11:25:47;2.70;;;1.00;;
1479;SDS011;732;51.698;4.886;2022-10-18T11:28:32;8.17;;;1.93;;
1479;SDS011;732;51.698;4.886;2022-10-18T11:31:17;2.43;;;1.03;;
1479;SDS011;732;51.698;4.886;2022-10-18T11:34:03;4.60;;;1.80;;
1479;SDS011;732;51.698;4.886;2022-10-18T11:36:50;2.50;;;1.33;;
1479;SDS011;732;51.698;4.886;2022-10-18T11:39:48;4.30;;;1.30;;
1479;SDS011;732;51.698;4.886;2022-10-18T11:42:31;1.47;;;0.87;;
1479;SDS011;732;51.698;4.886;2022-10-18T11:45:12;4.97;;;1.30;;
1479;SDS011;732;51.698;4.886;2022-10-18T11:47:58;2.70;;;1.30;;
1479;SDS011;732;51.698;4.886;2022-10-18T11:50:42;2.70;;;1.50;;
1479;SDS011;732;51.698;4.886;2022-10-18T11:53:22;4.03;;;1.10;;
1479;SDS011;732;51.698;4.886;2022-10-18T11:56:04;6.07;;;1.37;;
1479;SDS011;732;51.698;4.886;2022-10-18T11:58:45;4.17;;;1.10;;
1479;SDS011;732;51.698;4.886;2022-10-18T12:01:29;4.20;;;1.00;;
1479;SDS011;732;51.698;4.886;2022-10-18T12:04:06;3.20;;;1.10;;
1479;SDS011;732;51.698;4.886;2022-10-18T12:06:41;5.77;;;1.33;;
1479;SDS011;732;51.698;4.886;2022-10-18T12:09:13;4.43;;;1.23;;
1479;SDS011;732;51.698;4.886;2022-10-18T12:11:52;6.00;;;1.20;;
1479;SDS011;732;51.698;4.886;2022-10-18T12:14:28;3.67;;;1.10;;
1479;SDS011;732;51.698;4.886;2022-10-18T12:17:04;3.77;;;1.40;;
1479;SDS011;732;51.698;4.886;2022-10-18T12:20:10;6.10;;;1.40;;
1479;SDS011;732;51.698;4.886;2022-10-18T12:22:45;2.30;;;1.10;;
1479;SDS011;732;51.698;4.886;2022-10-18T12:25:20;3.53;;;1.00;;
1479;SDS011;732;51.698;4.886;2022-10-18T12:27:51;3.20;;;1.00;;
1479;SDS011;732;51.698;4.886;2022-10-18T12:30:26;4.07;;;1.70;;
1479;SDS011;732;51.698;4.886;2022-10-18T12:33:03;9.20;;;1.23;;
1479;SDS011;732;51.698;4.886;2022-10-18T12:35:54;4.00;;;1.50;;
1479;SDS011;732;51.698;4.886;2022-10-18T12:38:33;5.27;;;1.20;;
1479;SDS011;732;51.698;4.886;2022-10-18T12:41:05;16.83;;;2.57;;
1479;SDS011;732;51.698;4.886;2022-10-18T12:43:50;5.07;;;1.10;;
1479;SDS011;732;51.698;4.886;2022-10-18T12:46:21;6.00;;;1.13;;
1479;SDS011;732;51.698;4.886;2022-10-18T12:48:58;1.60;;;1.00;;
1479;SDS011;732;51.698;4.886;2022-10-18T12:51:31;2.97;;;1.53;;
1479;SDS011;732;51.698;4.886;2022-10-18T12:54:08;2.07;;;1.10;;
1479;SDS011;732;51.698;4.886;2022-10-18T12:56:39;3.83;;;1.60;;
1479;SDS011;732;51.698;4.886;2022-10-18T13:02:23;6.90;;;1.50;;
1479;SDS011;732;51.698;4.886;2022-10-18T13:04:59;2.40;;;1.20;;
1479;SDS011;732;51.698;4.886;2022-10-18T13:11:28;4.53;;;1.30;;
1479;SDS011;732;51.698;4.886;2022-10-18T13:17:43;4.63;;;1.30;;
1479;SDS011;732;51.698;4.886;2022-10-18T13:20:21;4.87;;;1.37;;
1479;SDS011;732;51.698;4.886;2022-10-18T13:23:01;8.40;;;1.50;;
1479;SDS011;732;51.698;4.886;2022-10-18T13:25:48;6.90;;;1.50;;
1479;SDS011;732;51.698;4.886;2022-10-18T13:28:26;4.00;;;1.30;;
1479;SDS011;732;51.698;4.886;2022-10-18T13:31:01;4.20;;;1.73;;
1479;SDS011;732;51.698;4.886;2022-10-18T13:33:46;5.60;;;1.50;;
1479;SDS011;732;51.698;4.886;2022-10-18T13:36:19;4.73;;;2.20;;
1479;SDS011;732;51.698;4.886;2022-10-18T13:38:58;6.60;;;2.10;;
1479;SDS011;732;51.698;4.886;2022-10-18T13:41:31;2.70;;;1.17;;
1479;SDS011;732;51.698;4.886;2022-10-18T13:44:46;3.97;;;1.30;;
1479;SDS011;732;51.698;4.886;2022-10-18T13:47:15;2.53;;;1.10;;
1479;SDS011;732;51.698;4.886;2022-10-18T13:59:20;4.80;;;1.23;;
1479;SDS011;732;51.698;4.886;2022-10-18T14:02:33;4.67;;;1.43;;
1479;SDS011;732;51.698;4.886;2022-10-18T14:05:27;3.70;;;1.60;;
1479;SDS011;732;51.698;4.886;2022-10-18T14:08:18;3.20;;;1.30;;
1479;SDS011;732;51.698;4.886;2022-10-18T14:10:54;4.77;;;1.57;;
1479;SDS011;732;51.698;4.886;2022-10-18T14:13:33;5.10;;;1.30;;
1479;SDS011;732;51.698;4.886;2022-10-18T14:16:16;4.63;;;1.67;;
1479;SDS011;732;51.698;4.886;2022-10-18T14:19:05;3.03;;;1.20;;
1479;SDS011;732;51.698;4.886;2022-10-18T14:21:48;5.73;;;2.43;;
1479;SDS011;732;51.698;4.886;2022-10-18T14:24:23;3.40;;;1.60;;
1479;SDS011;732;51.698;4.886;2022-10-18T14:27:09;4.63;;;1.07;;
1479;SDS011;732;51.698;4.886;2022-10-18T14:29:46;3.53;;;1.13;;
1479;SDS011;732;51.698;4.886;2022-10-18T14:32:22;3.93;;;1.47;;
1479;SDS011;732;51.698;4.886;2022-10-18T14:34:54;4.57;;;1.57;;
1479;SDS011;732;51.698;4.886;2022-10-18T14:37:43;7.00;;;1.20;;
1479;SDS011;732;51.698;4.886;2022-10-18T14:40:25;5.20;;;1.53;;
1479;SDS011;732;51.698;4.886;2022-10-18T14:43:00;2.70;;;1.10;;
1479;SDS011;732;51.698;4.886;2022-10-18T14:45:31;5.23;;;1.30;;
1479;SDS011;732;51.698;4.886;2022-10-18T14:48:10;7.33;;;1.40;;
1479;SDS011;732;51.698;4.886;2022-10-18T14:50:42;5.00;;;1.63;;
1479;SDS011;732;51.698;4.886;2022-10-18T14:53:14;2.80;;;1.73;;
1479;SDS011;732;51.698;4.886;2022-10-18T14:55:51;6.50;;;1.80;;
1479;SDS011;732;51.698;4.886;2022-10-18T14:58:21;3.87;;;1.90;;
1479;SDS011;732;51.698;4.886;2022-10-18T15:00:50;10.73;;;1.50;;
1479;SDS011;732;51.698;4.886;2022-10-18T15:03:20;3.00;;;1.27;;
1479;SDS011;732;51.698;4.886;2022-10-18T15:05:50;2.30;;;1.00;;
1479;SDS011;732;51.698;4.886;2022-10-18T15:08:22;3.20;;;1.63;;
1479;SDS011;732;51.698;4.886;2022-10-18T15:10:51;2.03;;;1.00;;
1479;SDS011;732;51.698;4.886;2022-10-18T15:13:20;8.87;;;2.30;;
1479;SDS011;732;51.698;4.886;2022-10-18T15:15:50;7.27;;;2.80;;
1479;SDS011;732;51.698;4.886;2022-10-18T15:18:21;11.40;;;3.70;;
1479;SDS011;732;51.698;4.886;2022-10-18T15:21:09;8.60;;;3.20;;
1479;SDS011;732;51.698;4.886;2022-10-18T15:23:48;7.43;;;3.10;;
1479;SDS011;732;51.698;4.886;2022-10-18T15:26:19;10.10;;;3.90;;
1479;SDS011;732;51.698;4.886;2022-10-18T15:28:52;9.60;;;4.00;;
1479;SDS011;732;51.698;4.886;2022-10-18T15:31:29;5.77;;;1.70;;
1479;SDS011;732;51.698;4.886;2022-10-18T15:34:08;3.60;;;1.57;;
1479;SDS011;732;51.698;4.886;2022-10-18T15:36:42;3.93;;;1.57;;
1479;SDS011;732;51.698;4.886;2022-10-18T15:39:13;3.60;;;1.20;;
1479;SDS011;732;51.698;4.886;2022-10-18T15:41:46;2.10;;;1.20;;
1479;SDS011;732;51.698;4.886;2022-10-18T15:44:20;2.00;;;0.90;;
1479;SDS011;732;51.698;4.886;2022-10-18T15:46:54;1.93;;;0.83;;
1479;SDS011;732;51.698;4.886;2022-10-18T15:52:28;1.23;;;0.83;;
1479;SDS011;732;51.698;4.886;2022-10-18T15:58:16;2.30;;;1.07;;
1479;SDS011;732;51.698;4.886;2022-10-18T16:00:48;3.03;;;1.17;;
1479;SDS011;732;51.698;4.886;2022-10-18T16:03:18;1.40;;;1.13;;
1479;SDS011;732;51.698;4.886;2022-10-18T16:05:52;2.43;;;0.90;;
1479;SDS011;732;51.698;4.886;2022-10-18T16:08:25;4.50;;;0.90;;
1479;SDS011;732;51.698;4.886;2022-10-18T16:10:56;2.40;;;1.20;;
1479;SDS011;732;51.698;4.886;2022-10-18T16:13:25;3.97;;;1.03;;
1479;SDS011;732;51.698;4.886;2022-10-18T16:15:54;1.87;;;1.10;;
1479;SDS011;732;51.698;4.886;2022-10-18T16:18:22;2.40;;;0.90;;
1479;SDS011;732;51.698;4.886;2022-10-18T16:20:53;3.03;;;0.70;;
1479;SDS011;732;51.698;4.886;2022-10-18T16:23:22;2.67;;;0.93;;
1479;SDS011;732;51.698;4.886;2022-10-18T16:25:54;2.13;;;1.10;;
1479;SDS011;732;51.698;4.886;2022-10-18T16:28:23;1.60;;;0.97;;
1479;SDS011;732;51.698;4.886;2022-10-18T16:30:54;2.30;;;1.07;;
1479;SDS011;732;51.698;4.886;2022-10-18T16:33:24;3.37;;;1.00;;
1479;SDS011;732;51.698;4.886;2022-10-18T16:35:54;2.67;;;1.00;;
1479;SDS011;732;51.698;4.886;2022-10-18T16:38:25;3.83;;;1.27;;
1479;SDS011;732;51.698;4.886;2022-10-18T16:41:00;2.50;;;0.70;;
1479;SDS011;732;51.698;4.886;2022-10-18T16:43:30;1.27;;;0.70;;
1479;SDS011;732;51.698;4.886;2022-10-18T16:46:00;2.90;;;1.20;;
1479;SDS011;732;51.698;4.886;2022-10-18T16:48:29;4.43;;;1.17;;